Time;durP1;ratioP1;P1;durP2;ratioP2;P2;SDS_P1;SDS_P2;PMS_P1;PMS_P2;Temp;Humidity;BMP_temperature;BMP_pressure;BME280_temperature;BME280_humidity;BME280_pressure;Samples;Min_cycle;Max_cycle;Signal;HPM_P1;HPM_P2
2023/11/24 00:00:11;;;;;;;9.93;1.50;;;7.30;1.00;;;;;;5074813;28;20655;-79
2023/11/24 00:02:39;;;;;;;9.33;1.73;;;7.30;1.00;;;;;;5075012;28;20198;-80
2023/11/24 00:05:07;;;;;;;5.87;1.10;;;7.40;1.00;;;;;;5070412;28;20203;-80
2023/11/24 00:07:35;;;;;;;9.90;1.50;;;7.40;1.00;;;;;;5071990;28;20254;-79
2023/11/24 00:10:02;;;;;;;7.13;1.50;;;7.40;1.00;;;;;;5070732;28;20230;-79
2023/11/24 00:12:30;;;;;;;10.93;2.03;;;7.30;1.00;;;;;;5071384;28;20214;-80
2023/11/24 00:14:57;;;;;;;7.97;1.50;;;7.40;1.00;;;;;;5076280;28;20241;-80
2023/11/24 00:17:24;;;;;;;7.93;1.63;;;7.30;1.00;;;;;;5070583;28;20222;-81
2023/11/24 00:19:51;;;;;;;9.87;1.90;;;7.40;1.00;;;;;;5077360;28;20309;-79
2023/11/24 00:22:17;;;;;;;8.30;1.70;;;7.40;1.00;;;;;;5070021;28;20198;-81
2023/11/24 00:24:46;;;;;;;9.10;2.10;;;7.50;1.00;;;;;;5070283;28;20199;-81
2023/11/24 00:27:13;;;;;;;6.27;1.70;;;7.50;1.00;;;;;;5076001;28;20218;-80
2023/11/24 00:29:41;;;;;;;11.47;2.07;;;7.40;1.00;;;;;;5075613;28;20570;-79
2023/11/24 00:32:07;;;;;;;11.50;1.50;;;7.50;1.00;;;;;;5074056;28;20225;-80
2023/11/24 00:34:35;;;;;;;9.30;1.93;;;7.50;1.00;;;;;;5070609;28;20212;-81
2023/11/24 00:37:01;;;;;;;7.50;1.60;;;7.50;1.00;;;;;;5068196;28;20289;-81
2023/11/24 00:39:28;;;;;;;8.50;2.20;;;7.50;1.00;;;;;;5060828;28;20222;-80
2023/11/24 00:42:00;;;;;;;10.87;1.70;;;7.60;1.00;;;;;;5069575;28;20198;-80
2023/11/24 00:44:27;;;;;;;11.67;1.70;;;7.60;1.00;;;;;;5069856;28;20650;-81
2023/11/24 00:46:54;;;;;;;9.50;1.57;;;7.60;22.80;;;;;;5073919;28;20214;-78
2023/11/24 00:49:20;;;;;;;13.70;2.63;;;7.50;99.90;;;;;;5070752;28;20194;-79
2023/11/24 00:51:47;;;;;;;5.83;1.23;;;7.30;99.90;;;;;;5075381;28;20199;-80
2023/11/24 00:54:14;;;;;;;5.13;1.10;;;7.10;1.00;;;;;;5068583;28;20198;-79
2023/11/24 00:56:41;;;;;;;5.97;0.80;;;6.90;1.00;;;;;;5068901;28;20207;-79
2023/11/24 00:59:10;;;;;;;10.60;0.97;;;6.80;1.00;;;;;;5066058;28;20221;-80
2023/11/24 01:01:37;;;;;;;4.90;1.27;;;6.60;1.00;;;;;;5063447;28;20227;-80
2023/11/24 01:04:05;;;;;;;9.57;1.33;;;6.60;1.00;;;;;;5072240;28;20206;-80
2023/11/24 01:06:32;;;;;;;9.30;1.43;;;6.60;1.00;;;;;;5072729;28;20206;-81
2023/11/24 01:09:00;;;;;;;7.37;1.53;;;6.60;1.00;;;;;;5074635;28;20222;-80
2023/11/24 01:11:27;;;;;;;5.87;1.80;;;6.80;1.00;;;;;;5070605;28;20206;-81
2023/11/24 01:13:54;;;;;;;11.40;1.70;;;6.90;99.90;;;;;;5070024;28;20206;-79
2023/11/24 01:16:23;;;;;;;15.97;3.17;;;6.90;99.90;;;;;;5069457;28;20213;-79
2023/11/24 01:18:51;;;;;;;8.27;1.53;;;6.90;99.90;;;;;;5072435;28;20279;-78
2023/11/24 01:21:18;;;;;;;8.30;1.80;;;6.90;99.90;;;;;;5072013;28;21231;-81
2023/11/24 01:23:45;;;;;;;8.23;1.23;;;6.90;99.90;;;;;;5070118;28;20207;-80
2023/11/24 01:26:13;;;;;;;8.53;1.10;;;6.80;99.90;;;;;;5076703;28;20199;-81
2023/11/24 01:28:40;;;;;;;4.33;0.77;;;6.80;99.90;;;;;;5071487;28;20234;-80
2023/11/24 01:31:07;;;;;;;7.13;1.00;;;6.70;99.90;;;;;;5073567;28;20191;-80
2023/11/24 01:33:36;;;;;;;8.87;1.30;;;6.80;99.90;;;;;;5073335;28;20210;-80
2023/11/24 01:36:03;;;;;;;7.63;1.10;;;6.70;99.90;;;;;;5071861;28;20205;-81
2023/11/24 01:38:30;;;;;;;6.03;2.17;;;6.60;1.00;;;;;;5073750;28;20646;-79
2023/11/24 01:40:57;;;;;;;7.87;1.20;;;6.50;1.00;;;;;;5065247;28;20253;-80
2023/11/24 01:43:24;;;;;;;3.33;1.27;;;6.60;1.00;;;;;;5078070;28;20230;-80
2023/11/24 01:45:50;;;;;;;4.83;1.20;;;6.50;1.00;;;;;;5071375;28;20207;-80
2023/11/24 01:48:19;;;;;;;6.27;1.13;;;6.50;1.00;;;;;;5072313;28;20283;-80
2023/11/24 01:50:48;;;;;;;9.23;1.60;;;6.40;1.00;;;;;;5072060;28;20202;-79
2023/11/24 01:53:16;;;;;;;12.67;1.83;;;6.50;1.00;;;;;;5074286;28;20218;-80
2023/11/24 01:55:43;;;;;;;9.63;1.50;;;6.50;99.90;;;;;;5079705;28;20206;-80
2023/11/24 01:58:10;;;;;;;10.37;2.07;;;6.50;99.90;;;;;;5071232;28;20226;-80
2023/11/24 02:00:38;;;;;;;10.27;1.97;;;6.50;99.90;;;;;;5070400;28;20218;-80
2023/11/24 02:03:05;;;;;;;12.73;2.67;;;6.50;99.90;;;;;;5070250;28;20658;-78
2023/11/24 02:05:32;;;;;;;13.20;2.13;;;6.50;48.80;;;;;;5075275;28;20258;-80
2023/11/24 02:08:00;;;;;;;11.60;3.07;;;6.60;1.00;;;;;;5068931;28;20231;-80
2023/11/24 02:10:27;;;;;;;13.60;2.20;;;6.50;1.00;;;;;;5073958;28;20570;-80
2023/11/24 02:12:54;;;;;;;13.87;2.10;;;6.60;1.00;;;;;;5075228;28;20210;-80
2023/11/24 02:15:21;;;;;;;18.33;2.90;;;6.60;1.00;;;;;;5064589;28;20233;-80
2023/11/24 02:17:47;;;;;;;14.53;3.80;;;6.60;1.00;;;;;;5074484;28;20224;-79
2023/11/24 02:20:16;;;;;;;16.23;3.00;;;6.70;1.00;;;;;;5067510;28;20226;-80
2023/11/24 02:22:44;;;;;;;12.27;2.33;;;6.70;1.00;;;;;;5067299;28;20199;-79
2023/11/24 02:25:11;;;;;;;11.43;2.23;;;6.70;1.00;;;;;;5070192;28;20198;-79
2023/11/24 02:27:38;;;;;;;14.30;2.40;;;6.70;1.00;;;;;;5067694;28;20272;-79
2023/11/24 02:30:06;;;;;;;14.13;2.67;;;6.70;1.00;;;;;;5076522;28;20213;-78
2023/11/24 02:32:33;;;;;;;17.67;2.70;;;6.50;1.00;;;;;;5077482;28;20201;-79
2023/11/24 02:35:00;;;;;;;13.33;2.37;;;6.40;1.00;;;;;;5066402;28;20636;-79
2023/11/24 02:37:27;;;;;;;16.80;2.40;;;6.50;1.00;;;;;;5067273;28;20218;-80
2023/11/24 02:39:55;;;;;;;10.33;2.23;;;6.60;1.00;;;;;;5068329;28;20577;-79
2023/11/24 02:42:22;;;;;;;11.50;3.27;;;6.60;1.00;;;;;;5074609;28;20214;-80
2023/11/24 02:44:49;;;;;;;14.07;1.97;;;6.60;1.00;;;;;;5081075;28;20549;-79
2023/11/24 02:47:16;;;;;;;16.83;2.40;;;6.50;1.00;;;;;;5071542;28;20218;-79
2023/11/24 02:49:43;;;;;;;10.33;2.13;;;6.50;1.00;;;;;;5069079;28;20199;-79
2023/11/24 02:52:10;;;;;;;20.70;2.73;;;6.60;1.00;;;;;;5072037;28;20195;-80
2023/11/24 02:54:36;;;;;;;10.60;2.10;;;6.50;1.00;;;;;;5061142;28;20656;-81
2023/11/24 02:57:05;;;;;;;12.17;2.10;;;6.50;1.00;;;;;;5077144;28;20203;-81
2023/11/24 02:59:32;;;;;;;12.07;3.10;;;6.50;1.00;;;;;;5069268;28;20349;-80
2023/11/24 03:01:58;;;;;;;19.77;2.83;;;6.40;99.90;;;;;;5072472;28;20226;-80
2023/11/24 03:04:27;;;;;;;17.27;3.03;;;6.40;99.90;;;;;;5076567;28;20209;-80
2023/11/24 03:06:54;;;;;;;12.83;2.20;;;6.40;99.90;;;;;;5067259;28;20210;-80
2023/11/24 03:09:23;;;;;;;16.63;2.37;;;6.40;1.00;;;;;;5076979;28;20213;-79
2023/11/24 03:11:51;;;;;;;9.57;2.13;;;6.40;99.90;;;;;;5066014;28;20207;-81
2023/11/24 03:14:21;;;;;;;12.63;2.10;;;6.40;1.00;;;;;;5064580;28;20199;-79
2023/11/24 03:16:48;;;;;;;12.23;2.23;;;6.40;99.90;;;;;;5071354;28;20248;-80
2023/11/24 03:19:13;;;;;;;11.83;2.10;;;6.50;1.00;;;;;;5073083;28;20202;-78
2023/11/24 03:21:40;;;;;;;17.20;2.20;;;6.50;99.90;;;;;;5075950;28;20222;-80
2023/11/24 03:24:07;;;;;;;10.63;2.40;;;6.40;1.00;;;;;;5072209;28;20206;-81
2023/11/24 03:26:34;;;;;;;10.53;2.10;;;6.50;99.90;;;;;;5070164;28;20204;-80
2023/11/24 03:29:02;;;;;;;12.27;2.07;;;6.50;99.90;;;;;;5069507;28;20641;-81
2023/11/24 03:31:30;;;;;;;11.80;2.27;;;6.30;1.00;;;;;;5072571;28;20209;-79
2023/11/24 03:33:57;;;;;;;12.30;1.93;;;6.30;99.90;;;;;;5071942;28;20198;-80
2023/11/24 03:36:24;;;;;;;10.97;2.60;;;6.30;99.90;;;;;;5067018;28;20214;-80
2023/11/24 03:38:50;;;;;;;12.23;1.93;;;6.30;1.00;;;;;;5075823;28;20225;-81
2023/11/24 03:41:17;;;;;;;9.97;1.87;;;6.30;99.90;;;;;;5072057;28;20228;-79
2023/11/24 03:43:44;;;;;;;14.67;2.70;;;6.40;99.90;;;;;;5071696;28;20203;-81
2023/11/24 03:46:12;;;;;;;13.57;2.10;;;6.40;99.90;;;;;;5062317;28;20198;-80
2023/11/24 03:48:40;;;;;;;11.97;1.80;;;6.40;99.90;;;;;;5070968;28;20597;-80
2023/11/24 03:51:08;;;;;;;9.20;2.30;;;6.40;99.90;;;;;;5066006;28;20642;-80
2023/11/24 03:53:35;;;;;;;12.27;2.37;;;6.50;99.90;;;;;;5075709;28;20206;-79
2023/11/24 03:56:01;;;;;;;7.67;2.00;;;6.40;99.90;;;;;;5066190;28;20208;-80
2023/11/24 03:58:28;;;;;;;8.97;1.67;;;6.40;99.90;;;;;;5076127;28;20283;-79
2023/11/24 04:00:56;;;;;;;10.87;2.43;;;6.40;99.90;;;;;;5072424;28;20264;-80
2023/11/24 04:03:22;;;;;;;10.13;2.30;;;6.40;99.90;;;;;;5071600;28;20206;-80
2023/11/24 04:05:50;;;;;;;10.17;1.73;;;6.50;99.90;;;;;;5074990;28;20221;-80
2023/11/24 04:08:18;;;;;;;12.90;1.90;;;6.40;99.90;;;;;;5075994;28;20226;-78
2023/11/24 04:10:45;;;;;;;16.40;2.30;;;6.40;99.90;;;;;;5072373;28;20210;-78
2023/11/24 04:13:11;;;;;;;12.03;1.57;;;6.30;99.90;;;;;;5075129;28;20206;-80
2023/11/24 04:15:38;;;;;;;10.37;1.73;;;6.20;99.90;;;;;;5068384;28;20205;-78
2023/11/24 04:18:05;;;;;;;9.10;2.30;;;6.10;1.00;;;;;;5076403;28;20224;-81
2023/11/24 04:20:32;;;;;;;8.63;1.60;;;6.10;1.00;;;;;;5079893;28;20224;-78
2023/11/24 04:23:00;;;;;;;11.57;2.13;;;6.10;99.90;;;;;;5071955;28;20289;-80
2023/11/24 04:25:27;;;;;;;11.43;1.93;;;6.10;99.90;;;;;;5074176;28;20273;-79
2023/11/24 04:27:54;;;;;;;10.33;1.40;;;6.20;99.90;;;;;;5077382;28;20218;-79
2023/11/24 04:30:21;;;;;;;7.97;1.47;;;6.30;99.90;;;;;;5076271;28;20650;-83
2023/11/24 04:32:48;;;;;;;10.17;1.77;;;6.40;99.90;;;;;;5077686;28;20225;-81
2023/11/24 04:35:15;;;;;;;11.70;1.80;;;6.40;99.90;;;;;;5080599;28;20200;-81
2023/11/24 04:37:42;;;;;;;9.10;1.80;;;6.50;99.90;;;;;;5076595;28;20253;-81
2023/11/24 04:40:11;;;;;;;10.87;1.97;;;6.50;99.90;;;;;;5072578;28;20199;-80
2023/11/24 04:42:38;;;;;;;8.77;1.77;;;6.50;99.90;;;;;;5073033;28;20740;-80
2023/11/24 04:45:11;;;;;;;10.53;2.20;;;6.50;99.90;;;;;;5070622;28;20198;-80
2023/11/24 04:47:38;;;;;;;12.00;2.53;;;6.50;99.90;;;;;;5077217;28;20229;-79
2023/11/24 04:50:07;;;;;;;15.63;2.63;;;6.50;99.90;;;;;;5077747;28;20202;-80
2023/11/24 04:52:34;;;;;;;6.83;1.90;;;6.40;99.90;;;;;;5072674;28;20245;-84
2023/11/24 04:55:01;;;;;;;10.20;1.57;;;6.40;99.90;;;;;;5068239;28;20203;-81
2023/11/24 04:57:30;;;;;;;7.00;1.50;;;6.30;99.90;;;;;;5071851;28;20244;-80
2023/11/24 04:59:57;;;;;;;4.87;1.20;;;6.30;99.90;;;;;;5073435;28;20206;-80
2023/11/24 05:02:24;;;;;;;11.83;2.17;;;6.20;1.00;;;;;;5068834;28;20222;-81
2023/11/24 05:04:51;;;;;;;5.23;1.57;;;6.20;1.00;;;;;;5072712;28;20194;-82
2023/11/24 05:07:19;;;;;;;7.23;1.13;;;6.10;1.00;;;;;;5072023;28;20231;-81
2023/11/24 05:09:47;;;;;;;4.83;1.20;;;6.10;1.00;;;;;;5071166;28;20658;-84
2023/11/24 05:12:15;;;;;;;8.10;1.40;;;6.10;1.00;;;;;;5067477;28;20234;-82
2023/11/24 05:14:43;;;;;;;10.07;1.63;;;6.00;1.00;;;;;;5072949;28;20608;-81
2023/11/24 05:17:10;;;;;;;8.70;1.57;;;5.90;99.90;;;;;;5067480;28;20223;-81
2023/11/24 05:19:36;;;;;;;6.50;1.20;;;5.90;99.90;;;;;;5075873;28;20592;-80
2023/11/24 05:22:04;;;;;;;5.13;1.17;;;5.80;1.00;;;;;;5073273;28;20219;-82
2023/11/24 05:24:31;;;;;;;10.67;1.47;;;5.70;1.00;;;;;;5079703;28;20206;-81
2023/11/24 05:26:58;;;;;;;3.70;1.00;;;5.70;1.00;;;;;;5075398;28;20206;-82
2023/11/24 05:29:24;;;;;;;7.20;1.20;;;5.60;1.00;;;;;;5078063;28;20199;-80
2023/11/24 05:31:53;;;;;;;3.47;0.80;;;5.60;1.00;;;;;;5068679;28;20190;-80
2023/11/24 05:34:20;;;;;;;4.23;0.90;;;5.50;1.00;;;;;;5065513;28;20301;-83
2023/11/24 05:36:47;;;;;;;3.93;0.60;;;5.50;1.00;;;;;;5079515;28;20651;-82
2023/11/24 05:39:14;;;;;;;6.90;0.97;;;5.40;1.00;;;;;;5077750;28;20583;-83
2023/11/24 05:41:44;;;;;;;4.83;1.03;;;5.40;1.00;;;;;;5072365;28;20219;-82
2023/11/24 05:44:11;;;;;;;7.00;1.20;;;5.40;1.00;;;;;;5063493;28;20198;-82
2023/11/24 05:46:38;;;;;;;3.37;0.93;;;5.40;1.00;;;;;;5070493;28;20598;-81
2023/11/24 05:49:07;;;;;;;5.30;0.70;;;5.30;1.00;;;;;;5075550;28;20229;-81
2023/11/24 05:51:34;;;;;;;6.10;0.80;;;5.20;1.00;;;;;;5072645;28;20281;-83
2023/11/24 05:54:01;;;;;;;3.97;0.77;;;5.30;1.00;;;;;;5076037;28;20300;-80
2023/11/24 05:56:27;;;;;;;5.90;1.10;;;5.20;1.00;;;;;;5075756;28;20252;-83
2023/11/24 05:58:54;;;;;;;9.03;1.00;;;5.20;1.00;;;;;;5068234;28;20228;-81
2023/11/24 06:01:21;;;;;;;5.67;0.90;;;5.20;1.00;;;;;;5069791;28;20233;-83
2023/11/24 06:03:48;;;;;;;7.70;1.03;;;5.20;1.00;;;;;;5072529;28;20211;-81
2023/11/24 06:06:17;;;;;;;6.67;0.80;;;5.10;1.00;;;;;;5072157;28;20264;-81
2023/11/24 06:08:43;;;;;;;4.40;0.87;;;5.00;1.00;;;;;;5079157;28;20226;-83
2023/11/24 06:11:10;;;;;;;4.93;1.00;;;5.00;1.00;;;;;;5075417;28;20202;-81
2023/11/24 06:13:37;;;;;;;7.53;0.90;;;5.10;99.90;;;;;;5069911;28;20209;-80
2023/11/24 06:16:04;;;;;;;5.17;1.30;;;5.10;99.90;;;;;;5072859;28;20679;-80
2023/11/24 06:18:31;;;;;;;6.27;1.57;;;5.10;99.90;;;;;;5064054;28;20234;-82
2023/11/24 06:20:58;;;;;;;4.40;1.00;;;5.20;99.90;;;;;;5074365;28;20208;-82
2023/11/24 06:23:26;;;;;;;6.60;0.80;;;5.30;1.00;;;;;;5075326;28;20228;-80
2023/11/24 06:25:53;;;;;;;9.50;1.93;;;5.40;1.00;;;;;;5070310;28;20194;-81
2023/11/24 06:28:20;;;;;;;7.00;1.40;;;5.40;1.00;;;;;;5073560;28;20230;-81
2023/11/24 06:30:47;;;;;;;8.13;1.47;;;5.40;1.00;;;;;;5070325;28;20583;-81
2023/11/24 06:33:14;;;;;;;8.53;1.00;;;5.30;1.00;;;;;;5081417;28;20609;-81
2023/11/24 06:35:42;;;;;;;5.13;0.90;;;5.30;1.00;;;;;;5072863;28;20205;-80
2023/11/24 06:38:09;;;;;;;5.17;1.47;;;5.30;1.00;;;;;;5070537;28;20275;-82
2023/11/24 06:40:37;;;;;;;6.70;1.10;;;5.40;1.00;;;;;;5074225;28;20209;-83
2023/11/24 06:43:04;;;;;;;6.27;1.10;;;5.40;1.00;;;;;;5074864;28;20228;-82
2023/11/24 06:45:31;;;;;;;3.60;1.00;;;5.40;1.00;;;;;;5078720;28;20672;-80
2023/11/24 06:47:58;;;;;;;2.80;0.73;;;5.40;1.00;;;;;;5085740;28;20236;-80
2023/11/24 06:50:25;;;;;;;3.23;0.73;;;5.40;1.00;;;;;;5068217;28;20730;-82
2023/11/24 06:52:53;;;;;;;6.33;1.20;;;5.40;1.00;;;;;;5072797;28;20266;-81
2023/11/24 06:55:20;;;;;;;2.87;0.70;;;5.70;1.00;;;;;;5077147;28;20210;-81
2023/11/24 06:57:49;;;;;;;13.13;1.30;;;5.50;1.00;;;;;;5069205;28;20604;-82
2023/11/24 07:00:18;;;;;;;5.80;1.00;;;5.50;1.00;;;;;;5071908;28;20194;-83
2023/11/24 07:02:46;;;;;;;6.33;1.07;;;5.60;1.00;;;;;;5076696;28;20222;-84
2023/11/24 07:05:13;;;;;;;8.53;1.17;;;5.60;1.00;;;;;;5081471;28;20258;-82
2023/11/24 07:07:39;;;;;;;4.00;0.90;;;5.60;1.00;;;;;;5080596;28;20608;-82
2023/11/24 07:10:11;;;;;;;8.73;2.77;;;5.60;1.00;;;;;;5069786;28;20198;-80
2023/11/24 07:12:38;;;;;;;8.63;1.50;;;5.60;1.00;;;;;;5076590;28;20220;-82
2023/11/24 07:15:07;;;;;;;5.00;1.87;;;5.60;1.00;;;;;;5066383;28;20201;-81
2023/11/24 07:17:34;;;;;;;10.33;1.43;;;5.60;1.00;;;;;;5078586;28;20262;-82
2023/11/24 07:20:01;;;;;;;3.97;0.93;;;5.60;1.00;;;;;;5072470;28;20205;-81
2023/11/24 07:22:30;;;;;;;5.80;1.27;;;5.70;1.00;;;;;;5073286;28;20647;-84
2023/11/24 07:24:57;;;;;;;5.40;1.27;;;5.70;1.00;;;;;;5080034;28;20286;-81
2023/11/24 07:27:24;;;;;;;6.93;1.53;;;5.70;1.00;;;;;;5078176;28;20237;-79
2023/11/24 07:29:51;;;;;;;8.77;1.53;;;5.70;1.00;;;;;;5083342;28;20815;-81
2023/11/24 07:32:24;;;;;;;4.10;1.63;;;5.70;1.00;;;;;;5079329;28;20209;-81
2023/11/24 07:34:52;;;;;;;6.63;1.50;;;5.70;1.00;;;;;;5088744;28;20206;-82
2023/11/24 07:37:19;;;;;;;8.00;1.00;;;5.70;1.00;;;;;;5081500;28;20313;-80
2023/11/24 07:39:45;;;;;;;7.17;1.63;;;5.70;1.00;;;;;;5078539;28;20194;-81
2023/11/24 07:42:12;;;;;;;6.20;1.03;;;5.70;1.00;;;;;;5072218;28;20222;-80
2023/11/24 07:44:39;;;;;;;10.10;1.87;;;5.70;1.00;;;;;;5079958;28;20204;-80
2023/11/24 07:47:06;;;;;;;3.57;1.20;;;5.90;1.00;;;;;;5078536;28;20222;-81
2023/11/24 07:49:35;;;;;;;7.03;1.17;;;5.60;1.00;;;;;;5079562;28;20263;-82
2023/11/24 07:52:02;;;;;;;7.20;1.30;;;5.60;1.00;;;;;;5079610;28;20260;-84
2023/11/24 07:54:29;;;;;;;5.70;0.93;;;5.60;1.00;;;;;;5077842;28;20214;-83
2023/11/24 07:56:56;;;;;;;6.87;1.50;;;5.60;1.00;;;;;;5078550;28;20207;-82
2023/11/24 07:59:24;;;;;;;13.50;2.60;;;5.60;1.00;;;;;;5078684;28;20711;-80
2023/11/24 08:01:51;;;;;;;9.13;2.50;;;5.60;1.00;;;;;;5075514;28;20210;-84
2023/11/24 08:04:18;;;;;;;7.93;2.53;;;5.60;1.00;;;;;;5059570;28;20223;-84
2023/11/24 08:06:46;;;;;;;6.70;1.30;;;5.70;1.00;;;;;;5069893;28;20203;-83
2023/11/24 08:09:25;;;;;;;8.27;1.57;;;5.70;1.00;;;;;;5088096;28;20302;-84
2023/11/24 08:11:53;;;;;;;5.03;1.30;;;5.70;1.00;;;;;;5067053;28;20678;-84
2023/11/24 08:14:23;;;;;;;10.43;1.23;;;5.70;1.00;;;;;;5060704;28;20218;-81
2023/11/24 08:16:51;;;;;;;6.97;2.13;;;5.70;1.00;;;;;;5077170;28;20210;-82
2023/11/24 08:19:22;;;;;;;7.13;1.37;;;5.70;1.00;;;;;;5075092;28;20203;-82
2023/11/24 08:21:50;;;;;;;6.50;1.40;;;5.70;1.00;;;;;;5076589;28;20283;-83
2023/11/24 08:24:17;;;;;;;5.60;1.60;;;5.70;1.00;;;;;;5079933;28;20733;-83
2023/11/24 08:26:44;;;;;;;12.23;1.83;;;5.70;1.00;;;;;;5079255;28;20256;-82
2023/11/24 08:29:12;;;;;;;8.20;1.60;;;5.70;1.00;;;;;;5075423;28;20233;-80
2023/11/24 08:31:40;;;;;;;5.80;0.87;;;5.70;1.00;;;;;;5071811;28;20203;-81
2023/11/24 08:34:08;;;;;;;5.07;1.20;;;5.70;1.00;;;;;;5075536;28;20203;-80
2023/11/24 08:36:35;;;;;;;5.40;1.23;;;5.70;1.00;;;;;;5069785;28;20662;-81
2023/11/24 08:39:09;;;;;;;5.10;1.27;;;5.70;1.00;;;;;;5078335;28;20222;-83
2023/11/24 08:41:36;;;;;;;5.17;1.07;;;5.70;1.00;;;;;;5075887;28;20203;-83
2023/11/24 08:44:04;;;;;;;2.97;0.97;;;5.60;1.00;;;;;;5078168;28;20841;-83
2023/11/24 08:46:31;;;;;;;2.30;0.77;;;5.70;1.00;;;;;;5078185;28;20206;-81
2023/11/24 08:49:01;;;;;;;4.87;1.03;;;5.60;1.00;;;;;;5078397;28;20214;-82
2023/11/24 08:51:28;;;;;;;3.53;0.80;;;5.60;1.00;;;;;;5062325;28;20244;-81
2023/11/24 08:54:04;;;;;;;6.67;1.10;;;5.50;1.00;;;;;;5068810;28;20249;-80
2023/11/24 08:56:39;;;;;;;5.30;1.07;;;5.50;1.00;;;;;;5078004;28;20206;-81
2023/11/24 08:59:09;;;;;;;2.87;0.80;;;5.40;1.00;;;;;;5058510;28;20299;-83
2023/11/24 09:01:36;;;;;;;1.97;0.70;;;5.40;1.00;;;;;;5059650;28;20697;-82
2023/11/24 09:04:03;;;;;;;4.50;0.97;;;5.40;1.00;;;;;;5080607;28;20685;-84
2023/11/24 09:06:31;;;;;;;5.90;1.20;;;5.30;1.00;;;;;;5099080;28;20216;-81
2023/11/24 09:08:58;;;;;;;7.17;1.83;;;5.70;1.00;;;;;;5077352;28;20226;-79
2023/11/24 09:11:26;;;;;;;5.90;1.20;;;6.20;1.00;;;;;;5089130;28;20553;-81
2023/11/24 09:13:54;;;;;;;4.17;1.30;;;6.10;99.90;;;;;;5077291;28;20209;-83
2023/11/24 09:16:21;;;;;;;5.07;1.80;;;6.00;99.90;;;;;;5074136;28;20230;-83
2023/11/24 09:18:48;;;;;;;8.03;1.40;;;5.90;99.90;;;;;;5077254;28;20297;-81
2023/11/24 09:21:17;;;;;;;8.73;1.90;;;5.90;99.90;;;;;;5079023;28;20228;-83
2023/11/24 09:23:44;;;;;;;4.63;2.00;;;5.90;99.90;;;;;;5078214;28;20214;-82
2023/11/24 09:26:11;;;;;;;4.63;1.30;;;5.90;99.90;;;;;;5061156;28;20207;-81
2023/11/24 09:28:39;;;;;;;3.63;1.07;;;5.80;99.90;;;;;;5079071;28;20257;-81
2023/11/24 09:31:12;;;;;;;6.57;1.43;;;5.80;99.90;;;;;;5076310;28;20225;-80
2023/11/24 09:33:40;;;;;;;5.67;0.80;;;5.80;99.90;;;;;;5078034;28;20198;-82
2023/11/24 09:36:08;;;;;;;4.23;1.53;;;5.80;99.90;;;;;;5078193;28;20229;-84
2023/11/24 09:38:44;;;;;;;8.47;1.63;;;5.70;99.90;;;;;;5079368;28;20305;-83
2023/11/24 09:41:13;;;;;;;3.63;1.17;;;5.80;99.90;;;;;;5078280;28;20703;-81
2023/11/24 09:43:41;;;;;;;7.10;1.40;;;6.00;99.90;;;;;;5075727;28;20226;-84
2023/11/24 09:46:10;;;;;;;3.97;1.17;;;6.00;99.90;;;;;;5074338;28;20213;-80
2023/11/24 09:48:41;;;;;;;5.87;1.43;;;5.90;99.90;;;;;;5069521;28;20237;-81
2023/11/24 09:51:10;;;;;;;9.60;1.80;;;5.90;99.90;;;;;;5076005;28;20198;-82
2023/11/24 09:53:37;;;;;;;5.47;1.23;;;6.10;99.90;;;;;;5074501;28;20578;-83
2023/11/24 09:56:05;;;;;;;4.43;1.27;;;6.30;99.90;;;;;;5067038;28;20233;-80
2023/11/24 09:58:33;;;;;;;3.93;1.20;;;6.20;99.90;;;;;;5060616;28;20233;-80
2023/11/24 10:01:18;;;;;;;3.20;1.03;;;6.40;99.90;;;;;;5068374;28;20232;-83
2023/11/24 10:03:48;;;;;;;5.40;0.93;;;6.50;99.90;;;;;;5074903;28;20222;-81
2023/11/24 10:06:15;;;;;;;7.70;1.13;;;6.30;87.50;;;;;;5068086;28;20233;-82
2023/11/24 10:08:42;;;;;;;3.70;0.80;;;6.10;55.30;;;;;;5084285;28;20214;-82
2023/11/24 10:11:12;;;;;;;2.83;0.70;;;6.10;82.10;;;;;;5077469;28;20206;-83
2023/11/24 10:13:39;;;;;;;2.63;0.60;;;6.20;10.00;;;;;;5067107;28;20618;-82
2023/11/24 10:16:07;;;;;;;2.53;0.87;;;6.30;33.10;;;;;;5074918;28;20207;-81
2023/11/24 10:18:35;;;;;;;5.50;0.90;;;6.30;1.00;;;;;;5075808;28;20257;-81
2023/11/24 10:21:02;;;;;;;4.27;1.20;;;6.20;1.00;;;;;;5067760;28;20207;-79
2023/11/24 10:23:30;;;;;;;5.00;1.00;;;6.20;3.50;;;;;;5069952;28;20229;-80
2023/11/24 10:25:57;;;;;;;7.97;1.30;;;6.20;60.70;;;;;;5071308;28;20199;-80
2023/11/24 10:28:25;;;;;;;6.03;0.97;;;6.10;95.60;;;;;;5073957;28;20222;-81
2023/11/24 10:30:54;;;;;;;4.50;1.30;;;6.00;60.70;;;;;;5068225;28;20580;-78
2023/11/24 10:33:21;;;;;;;2.93;0.67;;;6.20;46.70;;;;;;5071787;28;20611;-80
2023/11/24 10:35:50;;;;;;;2.33;0.60;;;6.00;99.90;;;;;;5072495;28;20204;-82
2023/11/24 10:38:20;;;;;;;3.43;1.00;;;6.00;99.90;;;;;;5071980;28;20218;-82
2023/11/24 10:40:49;;;;;;;1.90;0.67;;;6.00;99.90;;;;;;5071154;28;20205;-82
2023/11/24 10:43:16;;;;;;;2.63;0.90;;;6.00;99.90;;;;;;5068983;28;20225;-81
2023/11/24 10:45:49;;;;;;;3.93;0.60;;;5.90;99.90;;;;;;5071531;28;20260;-79
2023/11/24 10:48:20;;;;;;;8.37;0.90;;;5.80;99.90;;;;;;5067464;28;20291;-84
2023/11/24 10:50:57;;;;;;;7.10;0.90;;;5.80;99.90;;;;;;5065552;28;20288;-81
2023/11/24 10:53:27;;;;;;;8.23;0.93;;;5.90;99.90;;;;;;5069864;28;20198;-78
2023/11/24 10:55:55;;;;;;;6.73;1.70;;;5.90;99.90;;;;;;5067045;28;20272;-81
2023/11/24 10:58:23;;;;;;;3.70;1.10;;;6.10;99.90;;;;;;5066993;28;20708;-80
2023/11/24 11:00:50;;;;;;;5.40;1.13;;;6.30;99.90;;;;;;5067173;28;20214;-79
2023/11/24 11:03:17;;;;;;;3.87;1.10;;;6.20;99.90;;;;;;5077297;28;20210;-80
2023/11/24 11:05:58;;;;;;;8.47;1.63;;;6.20;99.90;;;;;;5082434;28;20198;-80
2023/11/24 11:08:34;;;;;;;3.87;1.07;;;6.20;99.90;;;;;;5080289;28;20217;-79
2023/11/24 11:11:34;;;;;;;9.03;1.60;;;6.20;99.90;;;;;;5068029;28;20297;-78
2023/11/24 11:14:01;;;;;;;14.37;3.10;;;6.30;99.90;;;;;;5080176;28;20246;-80
2023/11/24 11:16:29;;;;;;;13.47;3.60;;;6.30;99.90;;;;;;5074305;28;20210;-79
2023/11/24 11:19:01;;;;;;;6.20;0.97;;;6.40;99.90;;;;;;5074281;28;20222;-80
2023/11/24 11:21:39;;;;;;;9.87;1.67;;;6.50;99.90;;;;;;5073159;28;20259;-79
2023/11/24 11:24:08;;;;;;;3.73;1.03;;;6.50;46.90;;;;;;5072335;28;20225;-80
2023/11/24 11:26:45;;;;;;;7.93;1.50;;;6.60;34.70;;;;;;5077144;28;20206;-78
2023/11/24 11:29:15;;;;;;;5.97;1.30;;;6.60;1.00;;;;;;5072745;28;20226;-78
2023/11/24 11:31:46;;;;;;;5.60;1.30;;;6.80;6.00;;;;;;5076747;28;20207;-80
2023/11/24 11:34:16;;;;;;;7.80;1.20;;;6.70;1.00;;;;;;5070276;28;20717;-79
2023/11/24 11:37:06;;;;;;;6.73;1.00;;;6.70;1.00;;;;;;5065079;28;20202;-80
2023/11/24 11:39:43;;;;;;;9.77;1.20;;;6.60;1.00;;;;;;5075215;28;20202;-79
2023/11/24 11:42:11;;;;;;;6.30;1.30;;;6.60;1.00;;;;;;5065728;28;20206;-79
2023/11/24 11:44:46;;;;;;;8.00;1.30;;;6.80;1.00;;;;;;5073968;28;20249;-79
2023/11/24 11:47:20;;;;;;;1.20;0.60;;;7.10;1.00;;;;;;5073241;28;20597;-80
2023/11/24 11:49:55;;;;;;;9.40;3.10;;;7.40;1.00;;;;;;5070935;28;20213;-81
2023/11/24 11:52:25;;;;;;;9.00;1.30;;;7.40;1.00;;;;;;5078506;28;20194;-81
2023/11/24 11:54:55;;;;;;;4.40;0.90;;;6.80;1.00;;;;;;5078981;28;20202;-81
2023/11/24 11:57:23;;;;;;;5.87;1.60;;;6.70;1.00;;;;;;5067478;28;20218;-80
2023/11/24 11:59:50;;;;;;;4.80;1.27;;;6.80;1.00;;;;;;5085642;28;20710;-81
2023/11/24 12:02:20;;;;;;;6.70;1.67;;;6.90;1.00;;;;;;5067847;28;20211;-80
2023/11/24 12:04:48;;;;;;;11.17;1.63;;;7.00;1.00;;;;;;5080133;28;20638;-81
2023/11/24 12:07:16;;;;;;;10.10;1.90;;;7.30;1.00;;;;;;5086295;28;20221;-81
2023/11/24 12:09:44;;;;;;;8.00;1.40;;;7.40;1.00;;;;;;5079698;28;20199;-80
2023/11/24 12:12:11;;;;;;;11.13;1.87;;;7.20;1.00;;;;;;5075569;28;20214;-81
2023/11/24 12:14:41;;;;;;;5.73;1.60;;;7.40;1.00;;;;;;5075865;28;20204;-80
2023/11/24 12:17:09;;;;;;;6.43;1.60;;;7.30;1.00;;;;;;5077121;28;20199;-79
2023/11/24 12:19:37;;;;;;;8.50;1.93;;;7.00;1.00;;;;;;5075514;28;20264;-79
2023/11/24 12:22:06;;;;;;;6.30;1.60;;;7.10;1.00;;;;;;5082017;28;20202;-81
2023/11/24 12:24:36;;;;;;;7.70;1.83;;;6.90;1.00;;;;;;5076566;28;20265;-80
2023/11/24 12:27:06;;;;;;;9.83;1.70;;;6.90;1.00;;;;;;5075973;28;20206;-80
2023/11/24 12:29:33;;;;;;;10.30;1.80;;;6.90;1.00;;;;;;5074253;28;20228;-81
2023/11/24 12:32:04;;;;;;;5.47;1.67;;;6.90;1.00;;;;;;5076568;28;20206;-80
2023/11/24 12:34:36;;;;;;;8.20;1.40;;;6.90;1.00;;;;;;5066698;28;20253;-80
2023/11/24 12:37:04;;;;;;;6.80;1.83;;;6.70;1.00;;;;;;5069040;28;20646;-80
2023/11/24 12:39:31;;;;;;;4.63;1.00;;;6.40;1.00;;;;;;5074814;28;20212;-81
2023/11/24 12:41:58;;;;;;;5.60;1.40;;;6.20;1.00;;;;;;5076149;28;20198;-80
2023/11/24 12:44:30;;;;;;;3.80;1.40;;;6.10;1.00;;;;;;5071039;28;20263;-79
2023/11/24 12:47:13;;;;;;;2.63;1.07;;;6.20;1.60;;;;;;5070787;28;20221;-82
2023/11/24 12:50:02;;;;;;;2.70;0.70;;;6.10;1.00;;;;;;5069461;28;20203;-80
2023/11/24 12:52:32;;;;;;;4.40;1.87;;;6.00;1.00;;;;;;5074811;28;20565;-81
2023/11/24 12:54:59;;;;;;;3.63;1.13;;;6.00;1.00;;;;;;5071014;28;20195;-82
2023/11/24 12:57:26;;;;;;;4.63;0.67;;;5.90;1.00;;;;;;5068451;28;20347;-80
2023/11/24 12:59:56;;;;;;;6.03;1.03;;;5.70;1.00;;;;;;5070773;28;20210;-80
2023/11/24 13:02:27;;;;;;;3.53;0.93;;;5.70;14.80;;;;;;5067238;28;20211;-81
2023/11/24 13:04:53;;;;;;;3.30;0.90;;;5.70;2.90;;;;;;5075419;28;20253;-82